Time;durP1;ratioP1;P1;durP2;ratioP2;P2;SDS_P1;SDS_P2;PMS_P1;PMS_P2;Temp;Humidity;BMP_temperature;BMP_pressure;BME280_temperature;BME280_humidity;BME280_pressure;Samples;Min_cycle;Max_cycle;Signal;HPM_P1;HPM_P2
2024/03/17 00:01:41;;;;;;;48.70;32.17;;;333.70;2329.60;;;;;;5072298;28;20116;-74
2024/03/17 00:04:07;;;;;;;55.53;32.78;;;333.70;2329.60;;;;;;5071070;28;20021;-75
2024/03/17 00:06:33;;;;;;;54.92;33.45;;;333.70;2329.60;;;;;;5064717;28;20031;-76
2024/03/17 00:09:00;;;;;;;47.97;32.70;;;333.70;2329.60;;;;;;5063904;28;20393;-74
2024/03/17 00:11:26;;;;;;;51.13;33.80;;;333.70;2329.60;;;;;;5061913;28;20055;-74
2024/03/17 00:13:52;;;;;;;56.78;35.55;;;333.70;2329.60;;;;;;5070992;28;20021;-74
2024/03/17 00:16:18;;;;;;;79.53;46.08;;;358.40;2329.60;;;;;;5059855;28;20493;-78
2024/03/17 00:18:46;;;;;;;61.30;38.63;;;358.40;2329.60;;;;;;5066061;28;20027;-75
2024/03/17 00:21:13;;;;;;;63.25;40.50;;;333.70;2329.60;;;;;;5072054;28;20419;-74
2024/03/17 00:23:39;;;;;;;79.18;48.70;;;358.40;2329.60;;;;;;5058448;28;20024;-74
2024/03/17 00:26:05;;;;;;;74.10;45.92;;;333.70;2329.60;;;;;;5062296;28;20036;-74
2024/03/17 00:28:31;;;;;;;78.13;46.88;;;333.70;2329.60;;;;;;5068681;28;20029;-74
2024/03/17 00:30:57;;;;;;;67.55;40.55;;;333.70;2329.60;;;;;;5062845;28;20082;-74
2024/03/17 00:33:24;;;;;;;54.95;36.58;;;333.70;2329.60;;;;;;5068049;28;20027;-75
2024/03/17 00:35:50;;;;;;;55.60;35.45;;;333.70;2329.60;;;;;;5068005;28;20028;-80
2024/03/17 00:38:16;;;;;;;70.00;41.05;;;333.70;2329.60;;;;;;5074344;28;20051;-76
2024/03/17 00:40:41;;;;;;;59.22;37.55;;;358.40;2329.60;;;;;;5063521;28;20475;-74
2024/03/17 00:43:07;;;;;;;82.22;48.03;;;358.40;2329.60;;;;;;5070295;28;20115;-75
2024/03/17 00:45:33;;;;;;;66.53;41.05;;;333.70;2329.60;;;;;;5045255;28;20054;-74
2024/03/17 00:47:59;;;;;;;62.17;41.38;;;333.60;2329.60;;;;;;5060979;28;20486;-86
2024/03/17 00:50:25;;;;;;;70.57;41.85;;;333.70;2329.60;;;;;;5066872;28;20028;-74
2024/03/17 00:52:51;;;;;;;62.55;37.60;;;333.70;2329.60;;;;;;5064347;28;21322;-72
2024/03/17 00:55:17;;;;;;;56.33;37.17;;;333.70;2329.60;;;;;;5063709;28;20494;-74
2024/03/17 00:57:44;;;;;;;59.40;37.75;;;333.70;2329.60;;;;;;5058551;28;20140;-74
2024/03/17 01:00:11;;;;;;;58.90;37.80;;;333.70;2329.60;;;;;;5070762;28;20064;-76
2024/03/17 01:02:38;;;;;;;54.25;34.05;;;333.70;2329.60;;;;;;5063255;28;20037;-76
2024/03/17 01:05:07;;;;;;;62.25;37.58;;;333.60;2329.60;;;;;;5070845;28;20013;-78
2024/03/17 01:07:34;;;;;;;64.57;38.55;;;333.70;2329.60;;;;;;5066406;28;20037;-75
2024/03/17 01:10:00;;;;;;;70.80;42.28;;;333.60;2329.60;;;;;;5045741;28;20031;-74
2024/03/17 01:12:26;;;;;;;57.47;37.25;;;333.70;2329.60;;;;;;5058770;28;20029;-76
2024/03/17 01:14:52;;;;;;;56.53;35.28;;;333.70;2329.60;;;;;;5065084;28;20099;-82
2024/03/17 01:17:19;;;;;;;57.42;36.80;;;333.50;2329.60;;;;;;5052477;28;20029;-79
2024/03/17 01:19:45;;;;;;;55.05;34.90;;;333.40;2329.60;;;;;;5067534;28;20070;-74
2024/03/17 01:22:11;;;;;;;59.35;37.45;;;333.40;2329.60;;;;;;5059576;28;20485;-76
2024/03/17 01:24:39;;;;;;;49.75;35.92;;;333.40;2329.60;;;;;;5063773;28;20023;-77
2024/03/17 01:27:06;;;;;;;55.50;35.70;;;333.30;2329.60;;;;;;5063266;28;20033;-79
2024/03/17 01:29:32;;;;;;;53.00;34.35;;;333.30;2329.60;;;;;;5047873;28;20029;-75
2024/03/17 01:31:58;;;;;;;55.88;35.35;;;333.30;2329.60;;;;;;5053320;28;20032;-75
2024/03/17 01:34:24;;;;;;;53.10;35.78;;;333.30;2329.60;;;;;;5056249;28;20013;-79
2024/03/17 01:36:49;;;;;;;51.55;33.78;;;333.30;2329.60;;;;;;5055535;28;20450;-74
2024/03/17 01:39:17;;;;;;;61.97;38.72;;;333.20;2329.60;;;;;;5053210;28;20104;-76
2024/03/17 01:41:43;;;;;;;60.65;37.60;;;333.30;2329.60;;;;;;5053259;28;20037;-76
2024/03/17 01:44:22;;;;;;;64.70;41.10;;;333.40;2329.60;;;;;;5053268;28;20047;-74
2024/03/17 01:46:49;;;;;;;54.90;33.38;;;333.40;2329.60;;;;;;5053086;28;20047;-76
2024/03/17 01:49:16;;;;;;;64.30;37.53;;;333.40;2329.60;;;;;;5053072;28;20067;-75
2024/03/17 01:51:42;;;;;;;57.05;36.50;;;333.30;2329.60;;;;;;5053087;28;20025;-74
2024/03/17 01:54:09;;;;;;;62.47;37.22;;;333.40;2329.60;;;;;;5053092;28;20096;-75
2024/03/17 01:56:35;;;;;;;56.67;34.40;;;333.20;2329.60;;;;;;5053141;28;20063;-77
2024/03/17 01:59:01;;;;;;;57.00;34.08;;;333.20;2329.60;;;;;;5053133;28;20025;-73
2024/03/17 02:01:27;;;;;;;51.85;34.22;;;333.30;2329.60;;;;;;5052808;28;20025;-74
2024/03/17 02:03:53;;;;;;;53.60;35.10;;;333.30;2329.60;;;;;;5052996;28;20374;-77
2024/03/17 02:06:19;;;;;;;56.63;37.22;;;333.30;2329.60;;;;;;5052772;28;20479;-74
2024/03/17 02:08:53;;;;;;;56.03;36.25;;;333.20;2329.60;;;;;;5053286;28;20140;-74
2024/03/17 02:11:27;;;;;;;54.05;35.67;;;333.20;2329.60;;;;;;5044811;28;20174;-75
2024/03/17 02:13:53;;;;;;;69.03;40.13;;;333.30;2329.60;;;;;;5056960;28;20025;-74
2024/03/17 02:16:20;;;;;;;70.40;41.97;;;333.40;2329.60;;;;;;5057099;28;20477;-80
2024/03/17 02:18:46;;;;;;;61.28;38.65;;;333.40;2329.60;;;;;;5055671;28;20025;-74
2024/03/17 02:21:15;;;;;;;57.00;36.88;;;333.40;2329.60;;;;;;5056975;28;20466;-77
2024/03/17 02:23:44;;;;;;;55.95;34.13;;;333.40;2329.60;;;;;;5056745;28;20035;-75
2024/03/17 02:26:10;;;;;;;55.42;35.15;;;333.40;2329.60;;;;;;5056848;28;20025;-75
2024/03/17 02:28:44;;;;;;;57.90;36.40;;;333.40;2329.60;;;;;;5056659;28;20025;-75
2024/03/17 02:31:11;;;;;;;54.53;34.60;;;333.40;2329.60;;;;;;5056709;28;20078;-74
2024/03/17 02:33:38;;;;;;;59.17;38.05;;;333.40;2329.60;;;;;;5056658;28;20074;-74
2024/03/17 02:36:07;;;;;;;64.65;39.15;;;333.40;2329.60;;;;;;5056448;28;20028;-75
2024/03/17 02:41:18;;;;;;;57.75;36.75;;;333.30;2329.60;;;;;;5043451;28;20070;-76
2024/03/17 02:43:45;;;;;;;54.53;35.35;;;333.30;2329.60;;;;;;5056711;28;20385;-75
2024/03/17 02:46:15;;;;;;;55.25;35.70;;;333.30;2329.60;;;;;;5056701;28;20021;-75
2024/03/17 02:48:46;;;;;;;51.67;34.15;;;333.20;2329.60;;;;;;5056701;28;20021;-76
2024/03/17 02:51:14;;;;;;;58.28;34.95;;;333.20;2329.60;;;;;;5056325;28;20025;-74
2024/03/17 02:53:49;;;;;;;52.40;33.35;;;333.20;2329.60;;;;;;5056593;28;20047;-75
2024/03/17 02:56:17;;;;;;;56.50;36.30;;;333.10;2329.60;;;;;;5056333;28;20382;-78
2024/03/17 02:58:46;;;;;;;55.65;34.65;;;333.10;2329.60;;;;;;5045934;28;20022;-75
2024/03/17 03:01:12;;;;;;;56.33;34.33;;;333.10;2329.60;;;;;;5053873;28;20474;-75
2024/03/17 03:03:38;;;;;;;50.67;34.97;;;333.00;2329.60;;;;;;5056535;28;20033;-86
2024/03/17 03:06:08;;;;;;;52.25;36.22;;;333.00;2329.60;;;;;;5056171;28;20017;-82
2024/03/17 03:08:41;;;;;;;52.85;36.05;;;332.80;2329.60;;;;;;5055780;28;20053;-87
2024/03/17 03:11:10;;;;;;;57.10;35.35;;;333.10;2329.60;;;;;;5056222;28;20021;-75
2024/03/17 03:13:38;;;;;;;55.47;34.20;;;333.10;2329.60;;;;;;5055696;28;20115;-74
2024/03/17 03:16:06;;;;;;;56.05;36.92;;;333.20;2329.60;;;;;;5056222;28;20152;-87
2024/03/17 03:18:32;;;;;;;63.30;38.17;;;333.20;2329.60;;;;;;5056211;28;20032;-75
2024/03/17 03:20:58;;;;;;;55.22;37.95;;;333.20;2329.60;;;;;;5055346;28;20017;-82
2024/03/17 03:23:23;;;;;;;56.63;36.33;;;333.20;2329.60;;;;;;5054406;28;20394;-74
2024/03/17 03:25:56;;;;;;;57.30;38.22;;;333.20;2329.60;;;;;;5056088;28;20052;-75
2024/03/17 03:28:22;;;;;;;58.45;35.60;;;333.20;2329.60;;;;;;5055721;28;20021;-85
2024/03/17 03:30:48;;;;;;;56.95;35.75;;;333.20;2329.60;;;;;;5055758;28;20028;-75
2024/03/17 03:33:14;;;;;;;57.03;35.80;;;333.10;2329.60;;;;;;5055268;28;20082;-75
2024/03/17 03:35:40;;;;;;;61.67;35.25;;;333.10;2329.60;;;;;;5054865;28;20029;-78
2024/03/17 03:38:06;;;;;;;64.47;36.45;;;333.10;2329.60;;;;;;5055386;28;20433;-75
2024/03/17 03:40:32;;;;;;;61.83;37.17;;;333.00;2329.60;;;;;;5055639;28;20025;-75
2024/03/17 03:42:58;;;;;;;54.22;38.67;;;333.00;2329.60;;;;;;5055170;28;20430;-75
2024/03/17 03:45:25;;;;;;;65.07;40.97;;;333.00;2329.60;;;;;;5055630;28;20052;-82
2024/03/17 03:47:51;;;;;;;63.75;38.65;;;333.10;2329.60;;;;;;5055306;28;20025;-75
2024/03/17 03:50:21;;;;;;;57.83;41.33;;;333.10;2329.60;;;;;;5055496;28;20074;-75
2024/03/17 03:52:47;;;;;;;65.65;39.63;;;333.00;2329.60;;;;;;5055167;28;20374;-74
2024/03/17 03:55:15;;;;;;;58.35;38.78;;;333.10;2329.60;;;;;;5055073;28;20104;-75
2024/03/17 03:57:52;;;;;;;72.30;40.03;;;333.00;2329.60;;;;;;5055228;28;20048;-82
2024/03/17 04:00:22;;;;;;;62.33;38.45;;;333.00;2329.60;;;;;;5055253;28;20471;-77
2024/03/17 04:02:52;;;;;;;64.20;40.55;;;333.00;2329.60;;;;;;5049267;28;20049;-86
2024/03/17 04:05:19;;;;;;;64.25;41.17;;;332.90;2329.60;;;;;;5035203;28;20025;-74
2024/03/17 04:07:46;;;;;;;66.15;41.95;;;332.90;2329.60;;;;;;5052804;28;20041;-75
2024/03/17 04:10:13;;;;;;;62.45;40.00;;;332.90;2329.60;;;;;;5055077;28;20029;-74
2024/03/17 04:12:39;;;;;;;66.15;41.65;;;332.80;2329.60;;;;;;5054878;28;20412;-77
2024/03/17 04:15:10;;;;;;;66.90;40.95;;;308.10;2304.00;;;;;;5054714;28;20096;-74
2024/03/17 04:17:37;;;;;;;65.28;41.72;;;307.90;2304.00;;;;;;5054580;28;20482;-74
2024/03/17 04:20:04;;;;;;;66.22;43.67;;;307.90;2304.00;;;;;;5053555;28;20021;-75
2024/03/17 04:22:31;;;;;;;67.57;42.95;;;307.80;2304.00;;;;;;5054489;28;20031;-74
2024/03/17 04:24:57;;;;;;;74.50;41.53;;;307.70;2304.00;;;;;;5054599;28;20166;-74
2024/03/17 04:27:26;;;;;;;67.75;43.20;;;307.60;2304.00;;;;;;5054629;28;20027;-74
2024/03/17 04:29:56;;;;;;;67.40;42.45;;;307.60;2304.00;;;;;;5054738;28;20528;-75
2024/03/17 04:32:23;;;;;;;62.00;40.33;;;307.70;2304.00;;;;;;5052452;28;20052;-76
2024/03/17 04:34:49;;;;;;;64.63;41.47;;;307.50;2304.00;;;;;;5054452;28;20017;-74
2024/03/17 04:37:16;;;;;;;66.60;39.70;;;307.40;2304.00;;;;;;5054565;28;20036;-79
2024/03/17 04:39:44;;;;;;;65.80;40.22;;;307.40;2304.00;;;;;;5054057;28;20025;-75
2024/03/17 04:42:11;;;;;;;64.50;39.35;;;307.30;2304.00;;;;;;5054527;28;20137;-74
2024/03/17 04:44:37;;;;;;;70.47;42.17;;;307.40;2304.00;;;;;;5054254;28;20039;-74
2024/03/17 04:47:07;;;;;;;67.22;41.88;;;307.40;2304.00;;;;;;5052799;28;20025;-75
2024/03/17 04:49:42;;;;;;;65.85;39.45;;;307.40;2304.00;;;;;;5053868;28;20021;-86
2024/03/17 04:52:09;;;;;;;59.08;37.65;;;307.40;2304.00;;;;;;5054498;28;20037;-86
2024/03/17 04:54:35;;;;;;;57.20;36.20;;;307.40;2304.00;;;;;;5054001;28;20013;-75
2024/03/17 04:57:02;;;;;;;62.80;39.30;;;307.20;2304.00;;;;;;5054169;28;20032;-74
2024/03/17 04:59:29;;;;;;;61.30;39.72;;;307.50;2304.00;;;;;;5054111;28;20031;-78
2024/03/17 05:01:55;;;;;;;61.90;39.17;;;307.40;2304.00;;;;;;5054129;28;20029;-75
2024/03/17 05:04:21;;;;;;;63.20;39.88;;;307.50;2304.00;;;;;;5053780;28;20021;-75
2024/03/17 05:06:49;;;;;;;64.30;40.13;;;307.50;2304.00;;;;;;5053857;28;20021;-83
2024/03/17 05:09:19;;;;;;;58.38;38.22;;;307.60;2304.00;;;;;;5053605;28;20021;-77
2024/03/17 05:11:45;;;;;;;62.38;38.95;;;307.50;2304.00;;;;;;5053741;28;20025;-75
2024/03/17 05:14:11;;;;;;;70.30;40.42;;;307.50;2304.00;;;;;;5059281;28;20032;-74
2024/03/17 05:16:37;;;;;;;66.90;39.60;;;307.40;2304.00;;;;;;5045783;28;20025;-74
2024/03/17 05:19:03;;;;;;;55.58;40.10;;;307.40;2304.00;;;;;;5071363;28;20036;-76
2024/03/17 05:21:30;;;;;;;58.42;38.70;;;307.50;2304.00;;;;;;5062858;28;20033;-74
2024/03/17 05:24:00;;;;;;;58.33;38.22;;;307.40;2304.00;;;;;;5058133;28;20032;-78
2024/03/17 05:26:26;;;;;;;61.45;37.40;;;307.50;2304.00;;;;;;5063154;28;20112;-74
2024/03/17 05:28:51;;;;;;;56.90;36.80;;;307.50;2304.00;;;;;;5068159;28;20458;-74
2024/03/17 05:31:18;;;;;;;53.30;35.35;;;307.50;2304.00;;;;;;5071648;28;20024;-86
2024/03/17 05:33:44;;;;;;;55.45;36.05;;;307.50;2304.00;;;;;;5065466;28;20025;-74
2024/03/17 05:36:10;;;;;;;50.70;33.50;;;307.40;2304.00;;;;;;5070827;28;20055;-75
2024/03/17 05:38:36;;;;;;;52.13;33.03;;;307.50;2304.00;;;;;;5066157;28;20036;-77
2024/03/17 05:41:04;;;;;;;50.15;31.63;;;307.60;2304.00;;;;;;5070857;28;20386;-74
2024/03/17 05:43:38;;;;;;;51.08;32.72;;;307.60;2304.00;;;;;;5068978;28;20035;-75
2024/03/17 05:46:08;;;;;;;45.90;30.48;;;307.60;2304.00;;;;;;5068892;28;20020;-73
2024/03/17 05:48:38;;;;;;;43.17;26.80;;;307.70;2304.00;;;;;;5065695;28;20052;-77
2024/03/17 05:51:09;;;;;;;38.25;25.52;;;307.80;2304.00;;;;;;5064208;28;20163;-82
2024/03/17 05:53:35;;;;;;;39.22;23.63;;;307.90;2304.00;;;;;;5065403;28;20025;-76
2024/03/17 05:56:02;;;;;;;36.13;24.52;;;307.90;2304.00;;;;;;5065960;28;20364;-74
2024/03/17 05:58:28;;;;;;;37.70;25.70;;;308.10;2304.00;;;;;;5056936;28;20029;-74
2024/03/17 06:00:54;;;;;;;35.42;24.45;;;308.10;2304.00;;;;;;5064176;28;20020;-74
2024/03/17 06:03:21;;;;;;;37.53;22.98;;;332.90;2329.60;;;;;;5068552;28;20037;-74
2024/03/17 06:05:47;;;;;;;31.52;21.58;;;332.90;2329.60;;;;;;5062007;28;20059;-74
2024/03/17 06:08:13;;;;;;;38.00;23.23;;;332.90;2329.60;;;;;;5058767;28;20044;-76
2024/03/17 06:10:44;;;;;;;31.85;21.85;;;308.10;2304.00;;;;;;5068943;28;20024;-74
2024/03/17 06:13:13;;;;;;;32.03;20.38;;;332.80;2329.60;;;;;;5063194;28;20037;-73
2024/03/17 06:15:43;;;;;;;32.55;20.05;;;332.80;2329.60;;;;;;5067138;28;20021;-86
2024/03/17 06:18:16;;;;;;;30.58;19.40;;;332.90;2329.60;;;;;;5066299;28;20061;-74
2024/03/17 06:20:46;;;;;;;29.75;20.10;;;332.80;2329.60;;;;;;5069723;28;20058;-74
2024/03/17 06:23:13;;;;;;;26.05;18.70;;;332.80;2329.60;;;;;;5070108;28;20029;-74
2024/03/17 06:25:44;;;;;;;26.83;19.10;;;332.80;2329.60;;;;;;5072072;28;20531;-84
2024/03/17 06:28:13;;;;;;;30.25;20.83;;;332.80;2329.60;;;;;;5066347;28;20509;-75
2024/03/17 06:30:43;;;;;;;30.80;20.08;;;332.90;2329.60;;;;;;5065256;28;20377;-77
2024/03/17 06:33:13;;;;;;;27.75;19.70;;;333.10;2329.60;;;;;;5067589;28;20024;-76
2024/03/17 06:35:39;;;;;;;38.20;26.13;;;333.20;2329.60;;;;;;5066420;28;20044;-81
2024/03/17 06:38:09;;;;;;;26.55;18.48;;;333.30;2329.60;;;;;;5051054;28;20040;-76
2024/03/17 06:40:36;;;;;;;27.77;18.58;;;333.40;2329.60;;;;;;5038019;28;20422;-78
2024/03/17 06:43:02;;;;;;;29.08;17.92;;;333.30;2329.60;;;;;;5039224;28;20029;-77
2024/03/17 06:45:28;;;;;;;31.42;20.85;;;333.50;2329.60;;;;;;5069423;28;20069;-77
2024/03/17 06:47:55;;;;;;;30.23;18.98;;;333.50;2329.60;;;;;;5066312;28;20024;-77
2024/03/17 06:50:21;;;;;;;21.55;12.52;;;333.60;2329.60;;;;;;5048119;28;20021;-75
2024/03/17 06:52:47;;;;;;;19.25;11.98;;;333.60;2329.60;;;;;;5049114;28;20048;-75
2024/03/17 06:55:13;;;;;;;17.80;12.20;;;333.60;2329.60;;;;;;5062439;28;20110;-79
2024/03/17 06:57:46;;;;;;;17.90;12.77;;;333.70;2329.60;;;;;;5067318;28;20025;-75
2024/03/17 07:00:17;;;;;;;14.02;9.63;;;358.40;2329.60;;;;;;5065599;28;20032;-75
2024/03/17 07:02:44;;;;;;;14.95;9.20;;;358.40;2329.60;;;;;;5061827;28;20033;-84
2024/03/17 07:05:16;;;;;;;19.10;11.38;;;358.50;2329.60;;;;;;5064849;28;20051;-75
2024/03/17 07:07:43;;;;;;;17.17;10.40;;;358.50;2329.60;;;;;;5054354;28;20478;-74
2024/03/17 07:10:11;;;;;;;18.30;11.20;;;358.60;2329.60;;;;;;5072153;28;20031;-74
2024/03/17 07:12:37;;;;;;;14.27;9.15;;;358.70;2329.60;;;;;;5058625;28;20352;-77
2024/03/17 07:15:04;;;;;;;20.85;9.20;;;358.60;2329.60;;;;;;5063236;28;20036;-74
2024/03/17 07:17:30;;;;;;;15.40;9.30;;;358.50;2329.60;;;;;;5071178;28;20032;-75
2024/03/17 07:19:55;;;;;;;18.33;10.18;;;358.40;2329.60;;;;;;5048413;28;20029;-75
2024/03/17 07:22:22;;;;;;;13.70;8.63;;;358.50;2329.60;;;;;;5070427;28;20041;-76
2024/03/17 07:24:52;;;;;;;16.38;10.02;;;333.70;2329.60;;;;;;5049313;28;20032;-74
2024/03/17 07:27:17;;;;;;;16.98;9.15;;;358.40;2329.60;;;;;;5062956;28;20078;-79
2024/03/17 07:29:43;;;;;;;17.58;9.90;;;358.50;2329.60;;;;;;5071039;28;20029;-76
2024/03/17 07:32:09;;;;;;;16.75;10.02;;;358.50;2329.60;;;;;;5071515;28;20032;-75
2024/03/17 07:34:35;;;;;;;22.10;11.57;;;358.50;2329.60;;;;;;5061475;28;20023;-78
2024/03/17 07:37:03;;;;;;;18.65;9.00;;;358.80;2329.60;;;;;;5039936;28;20033;-81
2024/03/17 07:39:32;;;;;;;14.40;8.50;;;359.00;2329.60;;;;;;5051493;28;20056;-75
2024/03/17 07:41:59;;;;;;;14.25;8.40;;;358.90;2329.60;;;;;;5068129;28;20037;-75
2024/03/17 07:44:28;;;;;;;21.75;10.75;;;359.00;2329.60;;;;;;5062607;28;20044;-76
2024/03/17 07:46:54;;;;;;;14.88;8.82;;;359.00;2329.60;;;;;;5065439;28;20028;-78
2024/03/17 07:49:21;;;;;;;11.55;7.07;;;359.10;2329.60;;;;;;5069836;28;20022;-78
2024/03/17 07:51:47;;;;;;;12.50;6.53;;;359.10;2329.60;;;;;;5056869;28;20024;-75
2024/03/17 07:54:13;;;;;;;13.63;8.32;;;359.10;2329.60;;;;;;5065793;28;20016;-77
2024/03/17 07:56:39;;;;;;;13.77;8.10;;;359.10;2329.60;;;;;;5043392;28;20058;-78
2024/03/17 07:59:11;;;;;;;9.00;5.70;;;359.10;2329.60;;;;;;5068917;28;20027;-78
2024/03/17 08:01:38;;;;;;;5.15;3.63;;;359.10;2329.60;;;;;;5051786;28;20033;-78
2024/03/17 08:04:04;;;;;;;9.63;5.15;;;358.90;2329.60;;;;;;5035983;28;20033;-76
2024/03/17 08:06:30;;;;;;;8.43;5.85;;;358.90;2329.60;;;;;;5059102;28;20021;-78
2024/03/17 08:08:56;;;;;;;7.18;4.57;;;358.80;2329.60;;;;;;5049972;28;20053;-82
2024/03/17 08:11:23;;;;;;;9.75;5.30;;;358.80;2329.60;;;;;;5047364;28;20033;-76
2024/03/17 08:13:48;;;;;;;9.80;5.28;;;358.90;2329.60;;;;;;5061366;28;20108;-77
2024/03/17 08:16:15;;;;;;;8.80;5.70;;;358.90;2329.60;;;;;;5071887;28;20096;-75
2024/03/17 08:18:41;;;;;;;5.93;4.03;;;359.10;2329.60;;;;;;5063634;28;20048;-77
2024/03/17 08:21:07;;;;;;;9.63;5.47;;;384.10;2329.60;;;;;;5064521;28;20516;-75
2024/03/17 08:23:35;;;;;;;6.20;3.83;;;384.90;2329.60;;;;;;5051368;28;20128;-76
2024/03/17 08:26:01;;;;;;;8.20;3.80;;;410.00;2355.20;;;;;;5071681;28;20068;-75
2024/03/17 08:28:28;;;;;;;9.93;4.70;;;410.50;2355.20;;;;;;5057105;28;20505;-76
2024/03/17 08:30:59;;;;;;;5.28;3.63;;;435.30;2355.20;;;;;;5067744;28;20029;-79
2024/03/17 08:33:26;;;;;;;6.80;3.83;;;435.60;2355.20;;;;;;5050237;28;20076;-78
2024/03/17 08:36:00;;;;;;;4.35;2.80;;;435.90;2150.40;;;;;;5047681;28;20072;-79
2024/03/17 08:38:27;;;;;;;4.65;2.55;;;436.00;1996.80;;;;;;5047428;28;20033;-77
2024/03/17 08:40:58;;;;;;;7.93;3.45;;;435.80;1996.80;;;;;;5065452;28;20032;-77
2024/03/17 08:43:24;;;;;;;4.03;2.60;;;460.90;1996.80;;;;;;5051619;28;20033;-78
2024/03/17 08:45:59;;;;;;;6.95;3.50;;;461.20;1920.00;;;;;;5070555;28;20082;-81
2024/03/17 08:48:26;;;;;;;5.82;4.40;;;460.90;1894.40;;;;;;5050131;28;20107;-79
2024/03/17 08:50:53;;;;;;;6.63;3.53;;;436.00;1817.60;;;;;;5051402;28;20027;-79
2024/03/17 08:53:20;;;;;;;4.55;2.60;;;435.80;1843.20;;;;;;5033987;28;20103;-77
2024/03/17 08:55:46;;;;;;;4.82;2.50;;;435.60;1715.20;;;;;;5066529;28;20089;-77
2024/03/17 08:58:11;;;;;;;5.22;2.67;;;435.50;1792.00;;;;;;5059900;28;20510;-77
2024/03/17 09:00:37;;;;;;;6.85;2.78;;;435.40;1740.80;;;;;;5069340;28;20108;-77
2024/03/17 09:03:04;;;;;;;3.40;2.00;;;435.20;1740.80;;;;;;5057890;28;20062;-80
2024/03/17 09:05:33;;;;;;;2.67;1.65;;;410.50;1740.80;;;;;;5041068;28;20025;-77
2024/03/17 09:07:59;;;;;;;3.58;2.15;;;410.30;1740.80;;;;;;5060504;28;20136;-77
2024/03/17 09:10:25;;;;;;;5.05;2.47;;;410.20;1792.00;;;;;;5045553;28;20497;-77
2024/03/17 09:12:50;;;;;;;5.70;2.30;;;410.20;1817.60;;;;;;5064540;28;20024;-77
2024/03/17 09:15:17;;;;;;;4.03;2.88;;;410.20;1817.60;;;;;;5028562;28;20403;-75
2024/03/17 09:17:44;;;;;;;4.57;3.10;;;410.00;1817.60;;;;;;5071022;28;20526;-77
2024/03/17 09:20:12;;;;;;;8.52;3.53;;;410.00;1843.20;;;;;;5060548;28;20099;-82
2024/03/17 09:22:39;;;;;;;7.50;3.33;;;409.90;1894.40;;;;;;5041892;28;20033;-80
2024/03/17 09:25:09;;;;;;;5.40;2.88;;;409.80;1843.20;;;;;;5056301;28;20112;-78
2024/03/17 09:27:38;;;;;;;4.85;2.75;;;409.70;1894.40;;;;;;5062369;28;20032;-78
2024/03/17 09:30:08;;;;;;;5.82;2.92;;;409.60;1894.40;;;;;;5064847;28;20017;-78
2024/03/17 09:32:37;;;;;;;5.55;3.03;;;384.90;1894.40;;;;;;5043940;28;20024;-78
2024/03/17 09:35:04;;;;;;;4.35;2.88;;;384.90;1945.60;;;;;;5048564;28;20078;-81
2024/03/17 09:37:31;;;;;;;4.43;2.63;;;384.80;1945.60;;;;;;5063703;28;20051;-83
2024/03/17 09:40:00;;;;;;;6.07;2.95;;;384.90;1920.00;;;;;;5067162;28;20032;-77
2024/03/17 09:42:29;;;;;;;5.22;2.63;;;384.90;1920.00;;;;;;5048307;28;20036;-78
2024/03/17 09:44:56;;;;;;;4.55;3.22;;;384.90;1945.60;;;;;;5049269;28;20030;-76
2024/03/17 09:47:24;;;;;;;5.35;3.25;;;409.60;1996.80;;;;;;5066134;28;20112;-76
2024/03/17 09:49:51;;;;;;;7.80;4.47;;;409.70;2022.40;;;;;;5047324;28;20023;-75
2024/03/17 09:52:22;;;;;;;5.25;3.00;;;409.80;2022.40;;;;;;5069023;28;20478;-76
2024/03/17 09:54:59;;;;;;;4.40;2.72;;;410.00;2022.40;;;;;;5066204;28;20104;-79
2024/03/17 09:57:25;;;;;;;4.75;3.17;;;410.10;1996.80;;;;;;5047405;28;20033;-76
2024/03/17 09:59:53;;;;;;;9.55;3.22;;;410.20;1996.80;;;;;;5036979;28;20483;-75
2024/03/17 10:02:19;;;;;;;6.07;2.70;;;410.20;1971.20;;;;;;5068070;28;20059;-76
2024/03/17 10:04:45;;;;;;;5.25;3.33;;;410.40;1945.60;;;;;;5048363;28;20023;-78
2024/03/17 10:07:11;;;;;;;4.70;3.00;;;435.60;1894.40;;;;;;5061484;28;20045;-76
2024/03/17 10:09:38;;;;;;;6.78;2.63;;;435.90;1817.60;;;;;;5062770;28;20116;-78
2024/03/17 10:12:05;;;;;;;5.05;2.67;;;435.80;1689.60;;;;;;5068503;28;20024;-77
2024/03/17 10:14:32;;;;;;;7.95;3.50;;;435.70;1740.80;;;;;;5067516;28;20043;-76
2024/03/17 10:16:59;;;;;;;5.00;2.85;;;435.90;1740.80;;;;;;5044959;28;20079;-78
2024/03/17 10:19:27;;;;;;;5.88;3.45;;;435.90;1740.80;;;;;;5040767;28;20021;-77
2024/03/17 10:22:00;;;;;;;7.80;3.38;;;460.90;1740.80;;;;;;5064690;28;20036;-77
2024/03/17 10:24:33;;;;;;;6.30;3.10;;;460.90;1740.80;;;;;;5062570;28;20501;-83
2024/03/17 10:27:01;;;;;;;9.95;3.67;;;461.10;1689.60;;;;;;5057003;28;20013;-75
2024/03/17 10:29:35;;;;;;;8.98;4.43;;;461.40;1715.20;;;;;;5065344;28;20028;-75
2024/03/17 10:32:14;;;;;;;8.13;4.80;;;461.60;1664.00;;;;;;5065604;28;20248;-76
2024/03/17 10:34:40;;;;;;;9.02;4.13;;;461.20;1638.40;;;;;;5028361;28;20033;-76
2024/03/17 10:37:11;;;;;;;8.10;4.55;;;460.90;1664.00;;;;;;5073211;28;20377;-76
2024/03/17 10:39:38;;;;;;;9.57;4.22;;;461.40;1664.00;;;;;;5051735;28;20029;-79
2024/03/17 10:42:05;;;;;;;8.68;5.68;;;461.20;1689.60;;;;;;5068486;28;20036;-76
2024/03/17 10:44:32;;;;;;;9.68;6.13;;;461.40;1664.00;;;;;;5043492;28;20052;-75
2024/03/17 10:47:01;;;;;;;9.38;5.57;;;486.80;1612.80;;;;;;5068658;28;20028;-76
2024/03/17 10:49:34;;;;;;;6.55;3.88;;;487.10;1587.20;;;;;;5057624;28;20018;-78
2024/03/17 10:52:04;;;;;;;6.28;3.42;;;487.10;1561.60;;;;;;5051097;28;20036;-78
2024/03/17 10:54:30;;;;;;;5.30;3.38;;;512.10;1536.00;;;;;;5047626;28;20029;-78
2024/03/17 10:57:03;;;;;;;6.80;3.13;;;512.40;1459.20;;;;;;5055370;28;20482;-78
2024/03/17 10:59:42;;;;;;;4.70;3.10;;;512.40;1433.60;;;;;;5042648;28;20035;-77
2024/03/17 11:02:24;;;;;;;6.43;3.00;;;512.50;1408.00;;;;;;5046905;28;20483;-84
2024/03/17 11:04:57;;;;;;;5.07;2.97;;;512.60;1408.00;;;;;;5041452;28;20044;-77
2024/03/17 11:07:23;;;;;;;6.35;2.85;;;512.80;1382.40;;;;;;5064984;28;20058;-77
2024/03/17 11:09:52;;;;;;;4.53;2.85;;;537.60;1408.00;;;;;;5060453;28;20487;-76
2024/03/17 11:12:44;;;;;;;14.05;3.50;;;537.60;1382.40;;;;;;5075959;28;20462;-76
2024/03/17 11:15:19;;;;;;;4.57;2.50;;;537.90;1356.80;;;;;;5063562;28;20478;-76
2024/03/17 11:17:45;;;;;;;5.50;2.75;;;538.00;1305.60;;;;;;5051306;28;20029;-78
2024/03/17 11:20:15;;;;;;;6.20;3.63;;;538.10;1305.60;;;;;;5069212;28;20028;-76
2024/03/17 11:22:45;;;;;;;8.50;3.90;;;538.30;1305.60;;;;;;5068134;28;20098;-75
2024/03/17 11:25:26;;;;;;;6.95;1.98;;;537.90;1228.80;;;;;;5069096;28;20025;-78
2024/03/17 11:27:58;;;;;;;3.63;2.13;;;537.90;1228.80;;;;;;5065302;28;20490;-76
2024/03/17 11:30:51;;;;;;;6.32;2.65;;;538.00;1254.40;;;;;;5067065;28;20383;-84
2024/03/17 11:33:38;;;;;;;4.82;3.33;;;538.00;1305.60;;;;;;5070321;28;20078;-76
2024/03/17 11:36:28;;;;;;;8.75;3.22;;;538.00;1305.60;;;;;;5050541;28;20065;-77
2024/03/17 11:39:02;;;;;;;5.70;2.67;;;537.80;1331.20;;;;;;5061894;28;20032;-77
2024/03/17 11:41:43;;;;;;;4.40;2.65;;;538.10;1305.60;;;;;;5050830;28;20474;-78
2024/03/17 11:44:24;;;;;;;10.52;5.82;;;538.30;1331.20;;;;;;5067783;28;20033;-77
2024/03/17 11:47:01;;;;;;;6.45;3.88;;;538.40;1280.00;;;;;;5063302;28;20107;-78
2024/03/17 11:49:38;;;;;;;6.47;3.75;;;538.20;1305.60;;;;;;5045111;28;20020;-82
2024/03/17 11:52:08;;;;;;;11.05;2.83;;;538.40;1280.00;;;;;;5070736;28;20029;-77
2024/03/17 11:54:36;;;;;;;6.00;2.50;;;538.40;1254.40;;;;;;5056074;28;20044;-78
2024/03/17 11:57:04;;;;;;;7.25;2.45;;;563.30;1228.80;;;;;;5067555;28;20434;-78
2024/03/17 11:59:30;;;;;;;4.30;2.50;;;563.40;1254.40;;;;;;5073269;28;20444;-82
2024/03/17 12:01:56;;;;;;;9.25;3.33;;;563.30;1254.40;;;;;;5062066;28;20040;-78
2024/03/17 12:04:24;;;;;;;3.70;2.47;;;563.40;1228.80;;;;;;5067147;28;20377;-79
2024/03/17 12:06:55;;;;;;;7.10;3.20;;;563.40;1254.40;;;;;;5040920;28;20082;-78
2024/03/17 12:09:26;;;;;;;5.82;2.45;;;563.40;1254.40;;;;;;5061227;28;20025;-79
2024/03/17 12:11:58;;;;;;;8.57;3.17;;;563.20;1254.40;;;;;;5066120;28;20032;-80
2024/03/17 12:14:28;;;;;;;5.03;3.08;;;538.50;1228.80;;;;;;5052087;28;20032;-75